createdAt,value
2022-10-16T00:00:37.570Z,100680.50
2022-10-16T00:01:59.170Z,100686.81
2022-10-16T00:03:02.875Z,100685.97
2022-10-16T00:04:05.891Z,100694.81
2022-10-16T00:05:07.609Z,100693.13
2022-10-16T00:06:11.014Z,100688.81
2022-10-16T00:07:12.561Z,100690.63
2022-10-16T00:08:15.091Z,100695.13
2022-10-16T00:09:18.001Z,100690.78
2022-10-16T00:10:20.517Z,100692.47
2022-10-16T00:11:25.052Z,100684.59
2022-10-16T00:12:26.908Z,100685.44
2022-10-16T00:13:29.750Z,100691.78
2022-10-16T00:14:31.590Z,100692.75
2022-10-16T00:15:37.082Z,100695.44
2022-10-16T00:16:39.300Z,100696.41
2022-10-16T00:17:41.881Z,100698.41
2022-10-16T00:18:43.939Z,100706.41
2022-10-16T00:19:46.760Z,100708.25
2022-10-16T00:20:48.547Z,100712.75
2022-10-16T00:21:52.036Z,100706.56
2022-10-16T00:22:54.077Z,100707.56
2022-10-16T00:24:00.036Z,100704.06
2022-10-16T00:25:03.994Z,100713.03
2022-10-16T00:26:09.995Z,100704.19
2022-10-16T00:27:12.082Z,100703.34
2022-10-16T00:28:14.624Z,100701.69
2022-10-16T00:29:16.155Z,100707.03
2022-10-16T00:30:18.844Z,100707.88
2022-10-16T00:31:23.156Z,100704.34
2022-10-16T00:32:26.291Z,100701.81
2022-10-16T00:33:27.953Z,100696.47
2022-10-16T00:34:30.443Z,100699.16
2022-10-16T00:35:32.780Z,100691.31
2022-10-16T00:36:35.344Z,100693.13
2022-10-16T00:37:36.909Z,100702.13
2022-10-16T00:38:40.043Z,100697.63
2022-10-16T00:39:41.690Z,100689.75
2022-10-16T00:40:45.837Z,100688.94
2022-10-16T00:41:47.543Z,100693.44
2022-10-16T00:42:50.070Z,100697.09
2022-10-16T00:43:53.848Z,100697.09
2022-10-16T00:44:59.223Z,100696.25
2022-10-16T00:46:01.668Z,100691.06
2022-10-16T00:47:04.208Z,100692.91
2022-10-16T00:48:14.155Z,100697.38
2022-10-16T00:49:18.692Z,100685.88
2022-10-16T00:50:30.756Z,100687.84
2022-10-16T00:51:36.024Z,100687.84
2022-10-16T00:52:42.700Z,100686.16
2022-10-16T00:53:46.498Z,100680.84
2022-10-16T00:54:50.147Z,100683.63
2022-10-16T00:55:54.348Z,100684.47
2022-10-16T00:56:57.576Z,100675.78
2022-10-16T00:58:00.159Z,100680.16
2022-10-16T00:59:07.502Z,100693.50
2022-10-16T01:00:12.823Z,100691.81
2022-10-16T01:01:16.066Z,100682.97
2022-10-16T01:02:19.580Z,100689.13
2022-10-16T01:03:27.191Z,100684.78
2022-10-16T01:04:36.467Z,100683.13
2022-10-16T01:05:45.823Z,100681.44
2022-10-16T01:06:56.744Z,100681.44
2022-10-16T01:08:09.478Z,100678.91
2022-10-16T01:09:19.307Z,100688.72
2022-10-16T01:10:30.806Z,100691.41
2022-10-16T01:11:44.369Z,100692.41
2022-10-16T01:12:50.483Z,100692.41
2022-10-16T01:13:57.412Z,100695.22
2022-10-16T01:15:03.005Z,100694.38
2022-10-16T01:16:11.626Z,100700.41
2022-10-16T01:17:19.691Z,100711.22
2022-10-16T01:18:31.703Z,100699.72
2022-10-16T01:19:49.275Z,100707.72
2022-10-16T01:20:56.380Z,100708.56
2022-10-16T01:22:00.431Z,100715.72
2022-10-16T01:23:23.500Z,100710.56
2022-10-16T01:24:33.905Z,100702.53
2022-10-16T01:25:58.488Z,100709.72
2022-10-16T01:27:08.395Z,100705.34
2022-10-16T01:28:14.651Z,100710.69
2022-10-16T01:29:21.915Z,100702.84
2022-10-16T01:30:28.154Z,100709.03
2022-10-16T01:31:34.744Z,100706.34
2022-10-16T01:32:42.070Z,100709.03
2022-10-16T01:33:47.398Z,100708.72
2022-10-16T01:34:54.484Z,100698.06
2022-10-16T01:36:00.142Z,100695.22
2022-10-16T01:37:07.598Z,100697.75
2022-10-16T01:38:13.618Z,100694.25
2022-10-16T01:39:21.013Z,100696.06
2022-10-16T01:40:27.192Z,100698.72
2022-10-16T01:41:34.544Z,100689.03
2022-10-16T01:42:41.748Z,100696.91
2022-10-16T01:43:48.821Z,100695.09
2022-10-16T01:44:52.386Z,100692.25
2022-10-16T01:45:55.812Z,100695.63
2022-10-16T01:46:58.399Z,100695.63
2022-10-16T01:48:05.038Z,100700.78
2022-10-16T01:49:10.151Z,100696.47
2022-10-16T01:50:14.546Z,100702.50
2022-10-16T01:51:17.870Z,100696.31
2022-10-16T01:52:25.453Z,100705.16
2022-10-16T01:53:28.032Z,100700.66
2022-10-16T01:54:34.633Z,100706.97
2022-10-16T01:55:40.156Z,100706.13
2022-10-16T01:56:43.893Z,100705.28
2022-10-16T01:57:50.458Z,100707.81
2022-10-16T01:58:57.261Z,100706.84
2022-10-16T02:00:07.961Z,100708.66
2022-10-16T02:02:23.101Z,100701.50
2022-10-16T02:03:25.870Z,100700.66
2022-10-16T02:04:32.822Z,100699.81
2022-10-16T02:05:42.427Z,100693.63
2022-10-16T02:06:44.136Z,100696.31
2022-10-16T02:07:46.659Z,100686.47
2022-10-16T02:08:49.372Z,100693.50
2022-10-16T02:09:52.070Z,100702.31
2022-10-16T02:10:53.594Z,100702.19
2022-10-16T02:11:59.053Z,100708.19
2022-10-16T02:13:07.523Z,100715.09
2022-10-16T02:14:10.140Z,100716.94
2022-10-16T02:15:11.696Z,100715.09
2022-10-16T02:16:16.047Z,100709.59
2022-10-16T02:17:18.651Z,100710.31
2022-10-16T02:18:21.689Z,100713.94
2022-10-16T02:19:23.541Z,100712.25
2022-10-16T02:20:31.438Z,100714.81
2022-10-16T02:21:42.252Z,100718.31
2022-10-16T02:22:48.648Z,100720.97
2022-10-16T02:23:58.282Z,100716.47
2022-10-16T02:25:06.616Z,100722.66
2022-10-16T02:26:14.477Z,100716.47
2022-10-16T02:27:22.813Z,100720.13
2022-10-16T02:28:34.766Z,100715.66
2022-10-16T02:29:40.828Z,100720.13
2022-10-16T02:30:47.769Z,100724.63
2022-10-16T02:31:53.105Z,100725.47
2022-10-16T02:32:57.762Z,100720.13
2022-10-16T02:34:00.703Z,100729.00
2022-10-16T02:35:04.458Z,100727.97
2022-10-16T02:36:06.512Z,100731.50
2022-10-16T02:37:11.344Z,100724.34
2022-10-16T02:38:14.945Z,100719.00
2022-10-16T02:39:19.557Z,100725.31
2022-10-16T02:40:24.473Z,100727.84
2022-10-16T02:41:28.107Z,100724.34
2022-10-16T02:42:33.587Z,100721.66
2022-10-16T02:43:37.438Z,100717.31
2022-10-16T02:44:38.994Z,100732.34
2022-10-16T02:45:41.621Z,100722.66
2022-10-16T02:46:43.240Z,100729.66
2022-10-16T02:47:46.106Z,100719.84
2022-10-16T02:48:47.706Z,100726.84
2022-10-16T02:49:50.223Z,100720.69
2022-10-16T02:50:52.054Z,100720.69
2022-10-16T02:51:54.509Z,100718.00
2022-10-16T02:52:56.219Z,100714.50
2022-10-16T02:54:01.731Z,100722.34
2022-10-16T02:55:03.786Z,100721.50
2022-10-16T02:56:06.418Z,100725.19
2022-10-16T02:57:08.237Z,100725.19
2022-10-16T02:58:10.723Z,100724.34
2022-10-16T02:59:13.629Z,100735.00
2022-10-16T03:00:18.674Z,100719.00
2022-10-16T03:01:20.325Z,100722.66
2022-10-16T03:02:22.899Z,100726.31
2022-10-16T03:03:24.594Z,100719.28
2022-10-16T03:04:27.384Z,100722.94
2022-10-16T03:05:28.902Z,100721.25
2022-10-16T03:06:31.477Z,100732.94
2022-10-16T03:07:33.212Z,100730.28
2022-10-16T03:08:35.699Z,100726.91
2022-10-16T03:09:37.461Z,100730.56
2022-10-16T03:10:41.440Z,100719.91
2022-10-16T03:11:42.981Z,100724.53
2022-10-16T03:12:45.469Z,100722.88
2022-10-16T03:13:46.989Z,100722.03
2022-10-16T03:14:50.828Z,100718.50
2022-10-16T03:15:52.381Z,100722.16
2022-10-16T03:16:54.860Z,100720.50
2022-10-16T03:17:58.793Z,100713.47
2022-10-16T03:19:01.315Z,100717.81
2022-10-16T03:20:03.541Z,100719.78
2022-10-16T03:21:06.617Z,100715.44
2022-10-16T03:22:08.374Z,100722.47
2022-10-16T03:23:10.896Z,100715.44
2022-10-16T03:24:12.445Z,100718.25
2022-10-16T03:25:14.985Z,100718.25
2022-10-16T03:26:16.477Z,100718.25
2022-10-16T03:27:18.987Z,100716.56
2022-10-16T03:28:20.777Z,100715.72
2022-10-16T03:29:23.340Z,100717.41
2022-10-16T03:30:26.269Z,100717.59
2022-10-16T03:31:28.732Z,100720.25
2022-10-16T03:32:30.365Z,100719.41
2022-10-16T03:33:33.185Z,100723.91
2022-10-16T03:34:34.805Z,100731.91
2022-10-16T03:35:37.298Z,100721.38
2022-10-16T03:36:39.785Z,100733.72
2022-10-16T03:37:41.331Z,100735.72
2022-10-16T03:38:43.839Z,100734.03
2022-10-16T03:39:45.451Z,100737.69
2022-10-16T03:40:48.270Z,100733.19
2022-10-16T03:41:49.830Z,100725.34
2022-10-16T03:42:52.374Z,100729.84
2022-10-16T03:43:53.918Z,100731.66
2022-10-16T03:44:56.413Z,100730.94
2022-10-16T03:45:59.299Z,100735.59
2022-10-16T03:47:01.791Z,100737.44
2022-10-16T03:48:04.272Z,100732.25
2022-10-16T03:49:09.688Z,100733.34
2022-10-16T03:50:11.558Z,100728.19
2022-10-16T03:51:14.187Z,100732.69
2022-10-16T03:52:15.840Z,100738.31
2022-10-16T03:53:18.392Z,100737.47
2022-10-16T03:54:20.158Z,100734.13
2022-10-16T03:55:22.635Z,100741.41
2022-10-16T03:56:24.155Z,100738.91
2022-10-16T03:57:27.044Z,100733.69
2022-10-16T03:58:28.833Z,100742.72
2022-10-16T03:59:31.309Z,100740.19
2022-10-16T04:00:32.821Z,100733.31
2022-10-16T04:01:36.664Z,100730.78
2022-10-16T04:02:38.341Z,100729.94
2022-10-16T04:03:40.934Z,100738.94
2022-10-16T04:04:42.484Z,100739.22
2022-10-16T04:05:44.971Z,100738.50
2022-10-16T04:06:46.519Z,100744.84
2022-10-16T04:07:48.967Z,100745.84
2022-10-16T04:08:50.473Z,100748.50
2022-10-16T04:09:53.023Z,100749.47
2022-10-16T04:10:54.668Z,100754.13
2022-10-16T04:11:57.146Z,100754.13
2022-10-16T04:12:58.992Z,100750.63
2022-10-16T04:14:02.008Z,100747.09
2022-10-16T04:15:04.080Z,100755.09
2022-10-16T04:16:07.002Z,100756.09
2022-10-16T04:17:09.836Z,100754.41
2022-10-16T04:18:12.367Z,100760.72
2022-10-16T04:19:14.196Z,100758.22
2022-10-16T04:22:38.369Z,100762.00
2022-10-16T04:23:39.848Z,100771.00
2022-10-16T04:24:42.348Z,100776.34
2022-10-16T04:25:43.877Z,100769.31
2022-10-16T04:26:46.434Z,100779.00
2022-10-16T04:27:48.106Z,100773.66
2022-10-16T04:28:50.722Z,100774.66
2022-10-16T04:29:52.446Z,100786.28
2022-10-16T04:30:54.972Z,100787.13
2022-10-16T04:31:56.477Z,100793.44
2022-10-16T04:34:02.839Z,100785.31
2022-10-16T04:35:06.077Z,100790.66
2022-10-16T04:36:08.576Z,100787.00
2022-10-16T04:37:10.087Z,100780.94
2022-10-16T04:38:12.604Z,100786.28
2022-10-16T04:39:14.126Z,100781.78
2022-10-16T04:40:16.864Z,100773.97
2022-10-16T04:41:18.362Z,100769.59
2022-10-16T04:42:20.886Z,100768.75
2022-10-16T04:43:23.031Z,100765.25
2022-10-16T04:44:25.595Z,100763.41
2022-10-16T04:45:27.178Z,100761.59
2022-10-16T04:46:29.620Z,100767.91
2022-10-16T04:47:31.198Z,100774.94
2022-10-16T04:48:35.014Z,100781.97
2022-10-16T04:49:36.604Z,100787.28
2022-10-16T04:50:39.136Z,100789.97
2022-10-16T04:51:40.707Z,100793.44
2022-10-16T04:52:43.217Z,100796.09
2022-10-16T04:53:44.733Z,100793.44
2022-10-16T04:54:47.245Z,100799.50
2022-10-16T04:55:48.823Z,100799.63
2022-10-16T04:56:52.749Z,100803.97
2022-10-16T04:57:54.268Z,100801.31
2022-10-16T04:58:56.793Z,100804.66
2022-10-16T04:59:58.301Z,100806.50
2022-10-16T05:01:00.831Z,100802.00
2022-10-16T05:02:02.383Z,100809.19
2022-10-16T05:03:08.212Z,100810.84
2022-10-16T05:04:11.479Z,100810.00
2022-10-16T05:05:15.302Z,100804.53
2022-10-16T05:06:16.784Z,100806.34
2022-10-16T05:07:19.437Z,100810.84
2022-10-16T05:08:21.711Z,100803.00
2022-10-16T05:09:24.417Z,100809.31
2022-10-16T05:10:26.020Z,100814.66
2022-10-16T05:11:28.577Z,100809.31
2022-10-16T05:12:30.120Z,100804.94
2022-10-16T05:13:32.652Z,100811.97
2022-10-16T05:14:34.204Z,100813.97
2022-10-16T05:15:36.755Z,100812.09
2022-10-16T05:16:38.311Z,100817.44
2022-10-16T05:17:42.640Z,100818.44
2022-10-16T05:18:46.463Z,100829.97
2022-10-16T05:19:50.531Z,100829.13
2022-10-16T05:20:52.181Z,100826.56
2022-10-16T05:21:54.679Z,100826.56
2022-10-16T05:22:56.197Z,100819.56
2022-10-16T05:23:58.780Z,100831.22
2022-10-16T05:25:00.383Z,100828.56
2022-10-16T05:26:02.857Z,100834.84
2022-10-16T05:27:04.345Z,100832.19
2022-10-16T05:28:06.837Z,100839.22
2022-10-16T05:29:08.435Z,100827.84
2022-10-16T05:30:12.618Z,100837.53
2022-10-16T05:31:14.313Z,100839.22
2022-10-16T05:32:19.488Z,100826.84
2022-10-16T05:33:21.153Z,100823.22
2022-10-16T05:34:23.758Z,100835.84
2022-10-16T05:35:26.674Z,100834.84
2022-10-16T05:36:29.713Z,100837.53
2022-10-16T05:37:31.382Z,100839.22
2022-10-16T05:38:33.939Z,100845.41
2022-10-16T05:39:35.525Z,100840.06
2022-10-16T05:40:38.006Z,100845.41
2022-10-16T05:41:39.555Z,100838.25
2022-10-16T05:42:42.723Z,100839.22
2022-10-16T05:43:44.203Z,100844.56
2022-10-16T05:44:46.654Z,100842.84
2022-10-16T05:45:54.972Z,100854.38
2022-10-16T05:46:57.445Z,100848.19
2022-10-16T05:47:59.058Z,100857.16
2022-10-16T05:49:01.621Z,100850.16
2022-10-16T05:50:05.048Z,100851.00
2022-10-16T05:51:13.190Z,100851.84
2022-10-16T05:52:14.744Z,100851.84
2022-10-16T05:53:17.241Z,100851.84
2022-10-16T05:54:19.581Z,100856.34
2022-10-16T05:55:22.387Z,100863.50
2022-10-16T05:56:24.016Z,100855.50
2022-10-16T05:57:26.905Z,100853.81
2022-10-16T05:58:30.642Z,100860.13
2022-10-16T05:59:33.138Z,100861.97
2022-10-16T06:00:35.480Z,100867.31
2022-10-16T06:01:38.210Z,100871.78
2022-10-16T06:02:40.007Z,100875.44
2022-10-16T06:03:42.891Z,100877.13
2022-10-16T06:04:44.987Z,100882.44
2022-10-16T06:05:47.699Z,100884.28
2022-10-16T06:06:50.859Z,100881.59
2022-10-16T06:07:53.927Z,100877.13
2022-10-16T06:08:58.130Z,100878.94
2022-10-16T06:10:00.307Z,100884.28
2022-10-16T06:11:04.167Z,100886.09
2022-10-16T06:12:05.830Z,100885.25
2022-10-16T06:13:08.366Z,100887.06
2022-10-16T06:14:11.076Z,100887.06
2022-10-16T06:15:12.589Z,100896.75
2022-10-16T06:16:15.099Z,100893.25
2022-10-16T06:17:16.841Z,100889.72
2022-10-16T06:18:19.345Z,100884.28
2022-10-16T06:19:20.904Z,100880.63
2022-10-16T06:20:23.420Z,100887.78
2022-10-16T06:21:26.382Z,100885.13
2022-10-16T06:22:30.183Z,100880.63
2022-10-16T06:23:31.913Z,100894.78
2022-10-16T06:24:34.425Z,100894.78
2022-10-16T06:25:35.955Z,100890.28
2022-10-16T06:26:39.351Z,100900.97
2022-10-16T06:27:41.294Z,100904.34
2022-10-16T06:28:44.129Z,100903.50
2022-10-16T06:29:46.125Z,100901.53
2022-10-16T06:30:48.608Z,100896.19
2022-10-16T06:31:50.108Z,100900.41
2022-10-16T06:32:52.660Z,100894.25
2022-10-16T06:33:55.384Z,100889.72
2022-10-16T06:34:57.894Z,100901.25
2022-10-16T06:36:03.310Z,100891.41
2022-10-16T06:37:05.812Z,100893.97
2022-10-16T06:38:09.925Z,100901.81
2022-10-16T06:39:12.461Z,100904.34
2022-10-16T06:40:15.563Z,100906.00
2022-10-16T06:41:20.187Z,100902.38
2022-10-16T06:42:21.791Z,100909.41
2022-10-16T06:43:24.324Z,100908.41
2022-10-16T06:44:26.853Z,100919.78
2022-10-16T06:45:28.408Z,100919.78
2022-10-16T06:46:31.052Z,100918.94
2022-10-16T06:47:32.586Z,100923.28
2022-10-16T06:48:35.479Z,100926.81
2022-10-16T06:49:37.102Z,100927.63
2022-10-16T06:50:39.730Z,100932.97
2022-10-16T06:51:43.317Z,100933.81
2022-10-16T06:52:46.181Z,100938.19
2022-10-16T06:54:05.715Z,100931.03
2022-10-16T06:55:09.180Z,100938.00
2022-10-16T06:56:11.945Z,100942.53
2022-10-16T06:57:14.429Z,100943.34
2022-10-16T06:58:16.012Z,100949.53
2022-10-16T06:59:18.782Z,100944.19
2022-10-16T07:00:20.562Z,100946.75
2022-10-16T07:01:26.481Z,100935.22
2022-10-16T07:02:28.358Z,100951.22
2022-10-16T07:03:31.153Z,100951.22
2022-10-16T07:04:32.713Z,100948.56
2022-10-16T07:05:39.444Z,100951.22
2022-10-16T07:06:42.330Z,100953.19
2022-10-16T07:07:43.859Z,100954.19
2022-10-16T07:08:48.444Z,100955.16
2022-10-16T07:09:51.370Z,100959.63
2022-10-16T07:11:01.441Z,100957.13
2022-10-16T07:12:04.057Z,100969.50
2022-10-16T07:13:05.668Z,100967.78
2022-10-16T07:14:16.750Z,100976.66
2022-10-16T07:15:18.306Z,100972.28
2022-10-16T07:16:22.893Z,100975.78
2022-10-16T07:17:25.505Z,100977.75
2022-10-16T07:19:37.865Z,100973.41
2022-10-16T07:20:39.414Z,100980.41
2022-10-16T07:21:41.900Z,100983.22
2022-10-16T07:22:43.459Z,100978.75
2022-10-16T07:23:45.966Z,100990.25
2022-10-16T07:24:52.517Z,100989.41
2022-10-16T07:25:56.258Z,100988.41
2022-10-16T07:26:58.785Z,100995.59
2022-10-16T07:28:00.350Z,100991.06
2022-10-16T07:29:04.263Z,100996.41
2022-10-16T07:30:09.130Z,100996.41
2022-10-16T07:31:14.039Z,101002.59
2022-10-16T07:32:15.667Z,100995.44
2022-10-16T07:33:18.253Z,101002.47
2022-10-16T07:34:23.112Z,100999.81
2022-10-16T07:35:24.851Z,101001.50
2022-10-16T07:36:27.529Z,100999.53
2022-10-16T07:37:29.428Z,101001.22
2022-10-16T07:38:32.409Z,101002.88
2022-10-16T07:39:34.965Z,101009.91
2022-10-16T07:40:36.498Z,101010.59
2022-10-16T07:41:40.339Z,101009.34
2022-10-16T07:42:42.826Z,101013.72
2022-10-16T07:43:47.035Z,101015.25
2022-10-16T07:44:49.743Z,101012.47
2022-10-16T07:46:55.308Z,101019.91
2022-10-16T07:47:56.880Z,101021.44
2022-10-16T07:48:59.419Z,101022.13
2022-10-16T07:50:01.257Z,101028.19
2022-10-16T07:51:06.172Z,101036.03
2022-10-16T07:52:07.719Z,101020.75
2022-10-16T07:53:10.823Z,101024.25
2022-10-16T07:54:12.396Z,101029.34
2022-10-16T07:55:15.087Z,101015.81
2022-10-16T07:56:17.548Z,101028.19
2022-10-16T07:57:22.086Z,101023.56
2022-10-16T07:58:23.749Z,101038.44
2022-10-16T07:59:26.256Z,101036.63
2022-10-16T08:00:27.841Z,101032.97
2022-10-16T08:01:31.048Z,101031.72
2022-10-16T08:02:32.719Z,101040.41
2022-10-16T08:03:35.779Z,101037.75
2022-10-16T08:04:37.356Z,101037.47
2022-10-16T08:05:39.875Z,101047.84
2022-10-16T08:06:41.973Z,101042.22
2022-10-16T08:07:44.531Z,101044.78
2022-10-16T08:08:46.081Z,101048.13
2022-10-16T08:09:51.244Z,101047.00
2022-10-16T08:10:52.794Z,101054.88
2022-10-16T08:11:57.748Z,101052.78
2022-10-16T08:13:04.207Z,101054.31
2022-10-16T08:14:06.754Z,101052.50
2022-10-16T08:15:09.673Z,101058.53
2022-10-16T08:16:12.468Z,101054.88
2022-10-16T08:17:15.978Z,101052.91
2022-10-16T08:18:18.578Z,101057.97
2022-10-16T08:19:20.116Z,101058.50
2022-10-16T08:20:22.642Z,101062.75
2022-10-16T08:21:25.135Z,101066.97
2022-10-16T08:22:26.642Z,101063.19
2022-10-16T08:23:30.130Z,101060.22
2022-10-16T08:24:32.388Z,101067.25
2022-10-16T08:25:37.133Z,101063.47
2022-10-16T08:26:38.669Z,101072.31
2022-10-16T08:27:41.157Z,101069.66
2022-10-16T08:28:44.076Z,101070.34
2022-10-16T08:29:46.661Z,101070.22
2022-10-16T08:30:48.234Z,101072.59
2022-10-16T08:31:50.726Z,101067.09
2022-10-16T08:32:52.370Z,101075.81
2022-10-16T08:33:55.167Z,101072.84
2022-10-16T08:34:56.747Z,101076.50
2022-10-16T08:35:59.493Z,101077.06
2022-10-16T08:37:01.026Z,101080.47
2022-10-16T08:38:05.581Z,101086.31
2022-10-16T08:39:07.144Z,101087.19
2022-10-16T08:40:20.433Z,101084.50
2022-10-16T08:41:53.706Z,101081.69
2022-10-16T08:43:17.809Z,101086.06
2022-10-16T08:44:52.828Z,101077.03
2022-10-16T08:46:11.251Z,101084.09
2022-10-16T08:47:20.866Z,101091.81
2022-10-16T08:48:28.686Z,101094.34
2022-10-16T08:49:32.659Z,101090.53
2022-10-16T08:50:39.218Z,101091.22
2022-10-16T08:51:44.212Z,101097.28
2022-10-16T08:52:46.265Z,101102.34
2022-10-16T08:53:53.924Z,101106.56
2022-10-16T08:54:57.271Z,101109.06
2022-10-16T08:56:00.354Z,101113.13
2022-10-16T08:57:10.220Z,101131.56
2022-10-16T08:58:15.777Z,101122.56
2022-10-16T08:59:18.461Z,101130.44
2022-10-16T09:00:22.743Z,101125.63
2022-10-16T09:01:37.722Z,101130.69
2022-10-16T09:02:45.185Z,101136.75
2022-10-16T09:04:00.592Z,101123.09
2022-10-16T09:05:27.669Z,101116.59
2022-10-16T09:06:44.304Z,101127.00
2022-10-16T09:07:57.045Z,101126.88
2022-10-16T09:09:19.338Z,101120.50
2022-10-16T09:10:37.882Z,101120.38
2022-10-16T09:11:47.349Z,101123.72
2022-10-16T09:12:57.570Z,101121.91
2022-10-16T09:14:05.333Z,101112.91
2022-10-16T09:15:19.608Z,101115.41
2022-10-16T09:16:29.293Z,101124.00
2022-10-16T09:17:43.292Z,101122.03
2022-10-16T09:18:52.685Z,101130.75
2022-10-16T09:20:04.400Z,101129.75
2022-10-16T09:21:12.432Z,101127.63
2022-10-16T09:22:16.762Z,101139.00
2022-10-16T09:23:20.703Z,101133.38
2022-10-16T09:24:27.175Z,101132.25
2022-10-16T09:25:33.202Z,101137.59
2022-10-16T09:26:35.670Z,101142.66
2022-10-16T09:27:38.068Z,101142.53
2022-10-16T09:28:40.666Z,101146.06
2022-10-16T09:29:42.488Z,101141.25
2022-10-16T09:30:45.508Z,101156.16
2022-10-16T09:31:48.995Z,101143.47
2022-10-16T09:32:54.537Z,101148.69
2022-10-16T09:34:00.704Z,101145.84
2022-10-16T09:35:03.209Z,101149.22
2022-10-16T09:36:07.670Z,101145.56
2022-10-16T09:37:12.832Z,101142.59
2022-10-16T09:38:27.435Z,101152.28
2022-10-16T09:39:29.590Z,101149.47
2022-10-16T09:40:36.390Z,101145.81
2022-10-16T09:41:41.687Z,101149.00
2022-10-16T09:42:43.426Z,101149.00
2022-10-16T09:43:51.652Z,101147.03
2022-10-16T09:44:54.521Z,101147.03
2022-10-16T09:45:59.054Z,101153.94
2022-10-16T09:47:07.123Z,101143.09
2022-10-16T09:48:13.452Z,101146.44
2022-10-16T09:49:24.284Z,101145.47
2022-10-16T09:50:27.710Z,101144.44
2022-10-16T09:51:32.323Z,101141.47
2022-10-16T09:52:34.332Z,101138.78
2022-10-16T09:53:42.613Z,101140.47
2022-10-16T09:54:50.938Z,101147.53
2022-10-16T09:55:55.526Z,101147.53
2022-10-16T09:57:06.478Z,101143.88
2022-10-16T09:58:14.298Z,101137.50
2022-10-16T09:59:18.316Z,101146.91
2022-10-16T10:00:21.556Z,101139.72
2022-10-16T10:01:30.074Z,101140.28
2022-10-16T10:02:38.985Z,101141.81
2022-10-16T10:03:42.292Z,101137.28
2022-10-16T10:04:54.970Z,101140.66
2022-10-16T10:05:59.803Z,101143.19
2022-10-16T10:07:04.591Z,101149.41
2022-10-16T10:08:07.111Z,101144.72
2022-10-16T10:09:19.738Z,101141.06
2022-10-16T10:10:24.195Z,101139.22
2022-10-16T10:11:40.096Z,101139.72
2022-10-16T10:12:43.154Z,101137.06
2022-10-16T10:13:44.728Z,101143.97
2022-10-16T10:14:49.370Z,101141.97
2022-10-16T10:15:51.973Z,101144.78
2022-10-16T10:17:04.590Z,101142.28
2022-10-16T10:18:19.492Z,101139.91
2022-10-16T10:19:25.382Z,101144.56
2022-10-16T10:20:33.685Z,101143.03
2022-10-16T10:21:39.283Z,101144.72
2022-10-16T10:22:46.647Z,101145.41
2022-10-16T10:23:57.711Z,101151.78
2022-10-16T10:25:14.858Z,101151.91
2022-10-16T10:26:19.663Z,101158.41
2022-10-16T10:27:27.181Z,101158.41
2022-10-16T10:28:52.912Z,101155.72
2022-10-16T10:30:02.178Z,101153.34
2022-10-16T10:31:10.234Z,101144.63
2022-10-16T10:32:26.774Z,101153.34
2022-10-16T10:33:39.592Z,101147.03
2022-10-16T10:34:56.830Z,101142.34
2022-10-16T10:36:11.712Z,101142.03
2022-10-16T10:37:30.560Z,101151.91
2022-10-16T10:38:41.764Z,101158.09
2022-10-16T10:39:52.488Z,101152.63
2022-10-16T10:41:15.569Z,101154.44
2022-10-16T10:42:27.741Z,101154.75
2022-10-16T10:43:46.519Z,101161.78
2022-10-16T10:45:05.925Z,101158.41
2022-10-16T10:46:15.126Z,101158.41
2022-10-16T10:47:29.633Z,101161.78
2022-10-16T10:48:56.416Z,101158.09
2022-10-16T10:50:07.890Z,101154.13
2022-10-16T10:51:14.837Z,101142.09
2022-10-16T10:52:38.693Z,101156.03
2022-10-16T10:53:52.132Z,101153.22
2022-10-16T10:55:04.513Z,101154.91
2022-10-16T10:56:19.755Z,101160.59
2022-10-16T10:57:29.530Z,101162.25
2022-10-16T10:58:52.650Z,101167.59
2022-10-16T11:00:12.336Z,101174.66
2022-10-16T11:01:19.773Z,101174.66
2022-10-16T11:02:29.252Z,101172.66
2022-10-16T11:03:58.513Z,101175.88
2022-10-16T11:05:39.390Z,101173.06
2022-10-16T11:06:46.679Z,101170.91
2022-10-16T11:07:51.875Z,101168.06
2022-10-16T11:09:00.640Z,101171.16
2022-10-16T11:10:09.271Z,101173.66
2022-10-16T11:11:17.244Z,101177.84
2022-10-16T11:12:22.769Z,101175.91
2022-10-16T11:13:35.492Z,101175.63
2022-10-16T11:14:43.832Z,101184.34
2022-10-16T11:16:59.334Z,101183.72
2022-10-16T11:18:08.459Z,101178.06
2022-10-16T11:19:20.176Z,101173.53
2022-10-16T11:20:26.386Z,101179.41
2022-10-16T11:21:31.533Z,101179.09
2022-10-16T11:22:38.183Z,101181.66
2022-10-16T11:23:43.591Z,101172.44
2022-10-16T11:24:51.772Z,101173.16
2022-10-16T11:25:58.553Z,101171.16
2022-10-16T11:27:05.269Z,101179.03
2022-10-16T11:28:13.728Z,101167.47
2022-10-16T11:29:21.589Z,101179.03
2022-10-16T11:30:27.165Z,101176.19
2022-10-16T11:31:36.059Z,101176.19
2022-10-16T11:32:49.452Z,101176.19
2022-10-16T11:35:16.625Z,101169.66
2022-10-16T11:36:24.334Z,101172.22
2022-10-16T11:37:32.471Z,101168.50
2022-10-16T11:38:42.091Z,101169.88
2022-10-16T11:39:45.284Z,101173.28
2022-10-16T11:40:53.975Z,101175.66
2022-10-16T11:42:03.642Z,101173.63
2022-10-16T11:43:12.214Z,101177.84
2022-10-16T11:44:26.424Z,101172.34
2022-10-16T11:45:34.396Z,101184.59
2022-10-16T11:46:58.269Z,101189.81
2022-10-16T11:48:14.745Z,101185.44
2022-10-16T11:49:19.605Z,101188.13
2022-10-16T11:50:30.541Z,101188.13
2022-10-16T11:51:38.276Z,101179.22
2022-10-16T11:52:45.524Z,101184.75
2022-10-16T11:53:58.701Z,101174.31
2022-10-16T11:55:04.933Z,101178.00
2022-10-16T11:56:08.012Z,101182.84
2022-10-16T11:57:16.100Z,101184.81
2022-10-16T11:58:27.689Z,101177.78
2022-10-16T11:59:36.113Z,101189.38
2022-10-16T12:00:44.664Z,101191.75
2022-10-16T12:01:52.216Z,101192.28
2022-10-16T12:03:03.780Z,101189.28
2022-10-16T12:04:17.640Z,101188.25
2022-10-16T12:05:33.852Z,101182.75
2022-10-16T12:06:41.720Z,101184.59
2022-10-16T12:07:52.781Z,101188.97
2022-10-16T12:08:55.162Z,101184.44
2022-10-16T12:10:01.657Z,101187.63
2022-10-16T12:11:22.114Z,101187.47
2022-10-16T12:12:29.229Z,101185.63
2022-10-16T12:13:35.703Z,101191.53
2022-10-16T12:14:57.671Z,101191.91
2022-10-16T12:16:08.291Z,101191.56
2022-10-16T12:17:28.826Z,101193.78
2022-10-16T12:18:31.338Z,101192.31
2022-10-16T12:19:33.585Z,101191.00
2022-10-16T12:20:39.111Z,101193.38
2022-10-16T12:21:41.725Z,101184.03
2022-10-16T12:22:51.286Z,101184.56
2022-10-16T12:23:55.455Z,101189.44
2022-10-16T12:24:58.850Z,101177.38
2022-10-16T12:26:03.177Z,101186.63
2022-10-16T12:27:08.130Z,101188.00
2022-10-16T12:28:21.472Z,101186.53
2022-10-16T12:29:34.445Z,101191.25
2022-10-16T12:30:38.770Z,101182.69
2022-10-16T12:31:54.503Z,101185.91
2022-10-16T12:33:03.063Z,101176.66
2022-10-16T12:34:05.099Z,101182.56
2022-10-16T12:35:19.696Z,101178.88